Aviation Digital Data Service (ADDS)

Output produced by METARs form (1729 UTC 03 June 2020)
found at http://www.aviationweather.gov/metar/data/
 
Forecast for: AMD
Text: TAF AMD YSSY 031107Z 0312/0418 20014KT 9999 SCT030
Forecast period: 1200 UTC 03 June 2020 to 0600 UTC 04 June 2020
Forecast type: FROM: standard forecast or significant change
Winds: from the SSW (200 degrees) at 16 MPH (14 knots; 7.2 m/s)
Visibility: 6 or more miles 10+ km)
Ceiling: at least 12,000 feet AGL
Clouds: scattered clouds at 3000 feet AGL
Weather: no significant weather forecast for this period
Text: FM040600 19010KT 9999 FEW030
Forecast period: 0600 to 1200 UTC 04 June 2020
Forecast type: FROM: standard forecast or significant change
Winds: from the S (190 degrees) at 12 MPH (10 knots; 5.1 m/s)
Visibility: 6 or more miles 10+ km)
Ceiling: at least 12,000 feet AGL
Clouds: few clouds at 3000 feet AGL
Weather: no significant weather forecast for this period
Text: FM041200 29008KT CAVOK
Forecast period: 1200 to 1800 UTC 04 June 2020
Forecast type: FROM: standard forecast or significant change
Winds: from the WNW (290 degrees) at 9 MPH (8 knots; 4.1 m/s)
Visibility: 6 or more miles 10+ km)
Ceiling: unknown
Clouds: missing
Weather: NSW  (no significant weather)